Time;durP1;ratioP1;P1;durP2;ratioP2;P2;SDS_P1;SDS_P2;PMS_P1;PMS_P2;Temp;Humidity;BMP_temperature;BMP_pressure;BME280_temperature;BME280_humidity;BME280_pressure;Samples;Min_cycle;Max_cycle;Signal;HPM_P1;HPM_P2
2023/05/17 00:01:17;;;;;;;15.35;2.85;;;;;;;;;;7372128;19;20850;-84
2023/05/17 00:03:42;;;;;;;10.07;2.67;;;;;;;;;;7357950;19;20014;-83
2023/05/17 00:06:08;;;;;;;12.17;2.57;;;;;;;;;;7390829;19;20259;-84
2023/05/17 00:08:33;;;;;;;10.52;3.30;;;;;;;;;;7360359;19;20238;-84
2023/05/17 00:10:58;;;;;;;11.57;3.40;;;;;;;;;;7355681;19;20406;-84
2023/05/17 00:13:23;;;;;;;10.88;2.78;;;;;;;;;;7363623;19;20255;-84
2023/05/17 00:15:48;;;;;;;12.40;2.92;;;;;;;;;;7367462;19;20010;-83
2023/05/17 00:18:14;;;;;;;9.90;2.87;;;;;;;;;;7354222;19;20002;-83
2023/05/17 00:20:39;;;;;;;13.93;2.90;;;;;;;;;;7365428;19;20227;-83
2023/05/17 00:23:04;;;;;;;12.52;3.38;;;;;;;;;;7371077;19;20006;-84
2023/05/17 00:25:29;;;;;;;11.43;3.60;;;;;;;;;;7369041;19;20002;-84
2023/05/17 00:27:55;;;;;;;7.90;2.70;;;;;;;;;;7367168;19;20239;-83
2023/05/17 00:30:20;;;;;;;11.25;2.90;;;;;;;;;;7370618;19;20812;-83
2023/05/17 00:32:46;;;;;;;9.88;3.08;;;;;;;;;;7370188;19;20024;-83
2023/05/17 00:35:11;;;;;;;10.13;3.10;;;;;;;;;;7364425;19;20690;-84
2023/05/17 00:37:36;;;;;;;6.72;2.50;;;;;;;;;;7366049;19;19995;-83
2023/05/17 00:40:02;;;;;;;10.40;3.37;;;;;;;;;;7372508;19;20434;-83
2023/05/17 00:42:27;;;;;;;14.27;3.47;;;;;;;;;;7367591;19;20224;-84
2023/05/17 00:44:52;;;;;;;17.00;3.47;;;;;;;;;;7359562;19;20106;-84
2023/05/17 00:47:18;;;;;;;14.27;3.37;;;;;;;;;;7372486;19;20246;-84
2023/05/17 00:49:44;;;;;;;14.20;3.40;;;;;;;;;;7363648;19;20235;-83
2023/05/17 00:52:09;;;;;;;10.25;2.67;;;;;;;;;;7372690;19;20838;-83
2023/05/17 00:54:35;;;;;;;11.65;3.30;;;;;;;;;;7368949;19;20692;-83
2023/05/17 00:57:00;;;;;;;9.90;3.30;;;;;;;;;;7367350;19;20003;-83
2023/05/17 00:59:25;;;;;;;12.70;4.10;;;;;;;;;;7366921;19;20945;-83
2023/05/17 01:01:51;;;;;;;9.35;3.45;;;;;;;;;;7348542;19;20002;-83
2023/05/17 01:04:16;;;;;;;9.65;3.60;;;;;;;;;;7313091;19;20536;-83
2023/05/17 01:06:41;;;;;;;11.93;3.90;;;;;;;;;;7272164;19;20093;-84
2023/05/17 01:09:07;;;;;;;11.23;3.67;;;;;;;;;;7268350;19;20005;-84
2023/05/17 01:11:35;;;;;;;9.18;3.83;;;;;;;;;;7269747;19;19991;-83
2023/05/17 01:14:21;;;;;;;11.30;3.38;;;;;;;;;;7268970;19;19994;-83
2023/05/17 01:16:56;;;;;;;8.40;3.40;;;;;;;;;;7265853;19;20468;-83
2023/05/17 01:19:44;;;;;;;15.25;4.10;;;;;;;;;;7265872;19;19994;-83
2023/05/17 01:22:28;;;;;;;9.77;3.25;;;;;;;;;;7275795;19;20073;-83
2023/05/17 01:25:12;;;;;;;11.23;3.83;;;;;;;;;;7277875;19;20010;-83
2023/05/17 01:27:38;;;;;;;12.15;4.32;;;;;;;;;;7267995;19;20696;-83
2023/05/17 01:30:05;;;;;;;12.98;4.75;;;;;;;;;;7267886;19;20007;-83
2023/05/17 01:32:32;;;;;;;13.18;4.32;;;;;;;;;;7271499;19;20007;-83
2023/05/17 01:34:57;;;;;;;10.63;3.92;;;;;;;;;;7269538;19;20010;-84
2023/05/17 01:37:22;;;;;;;9.75;3.90;;;;;;;;;;7271768;19;20297;-83
2023/05/17 01:39:47;;;;;;;14.85;4.25;;;;;;;;;;7269375;19;20335;-83
2023/05/17 01:42:16;;;;;;;12.88;3.45;;;;;;;;;;7269231;19;20006;-83
2023/05/17 01:44:44;;;;;;;10.15;3.55;;;;;;;;;;7267627;19;20014;-83
2023/05/17 01:47:19;;;;;;;10.80;3.78;;;;;;;;;;7266067;19;20379;-84
2023/05/17 01:49:46;;;;;;;10.68;3.55;;;;;;;;;;7265982;19;20321;-84
2023/05/17 01:52:17;;;;;;;12.35;4.18;;;;;;;;;;7261018;19;20452;-83
2023/05/17 01:54:51;;;;;;;12.30;3.50;;;;;;;;;;7272181;19;20007;-83
2023/05/17 01:57:18;;;;;;;12.95;3.90;;;;;;;;;;7263024;19;20020;-84
2023/05/17 01:59:44;;;;;;;11.40;4.20;;;;;;;;;;7263865;19;20007;-83
2023/05/17 02:02:09;;;;;;;10.90;4.07;;;;;;;;;;7270006;19;20606;-83
2023/05/17 02:04:35;;;;;;;15.82;4.55;;;;;;;;;;7310058;19;19999;-82
2023/05/17 02:07:01;;;;;;;12.23;3.85;;;;;;;;;;7363672;19;20413;-83
2023/05/17 02:09:26;;;;;;;10.55;3.95;;;;;;;;;;7353095;19;20002;-83
2023/05/17 02:11:51;;;;;;;13.85;4.38;;;;;;;;;;7363661;19;20447;-83
2023/05/17 02:14:16;;;;;;;12.35;4.20;;;;;;;;;;7366688;19;19995;-83
2023/05/17 02:16:41;;;;;;;11.80;4.80;;;;;;;;;;7365617;19;20540;-83
2023/05/17 02:19:07;;;;;;;12.40;4.40;;;;;;;;;;7357065;19;20772;-83
2023/05/17 02:21:33;;;;;;;12.55;4.18;;;;;;;;;;7358798;19;20243;-83
2023/05/17 02:23:58;;;;;;;13.77;4.50;;;;;;;;;;7354360;19;20828;-83
2023/05/17 02:26:23;;;;;;;13.35;4.28;;;;;;;;;;7362138;19;20694;-83
2023/05/17 02:28:48;;;;;;;16.80;4.78;;;;;;;;;;7361376;19;20088;-83
2023/05/17 02:31:14;;;;;;;13.88;4.40;;;;;;;;;;7362241;19;19994;-83
2023/05/17 02:33:39;;;;;;;18.70;5.22;;;;;;;;;;7358925;19;20704;-83
2023/05/17 02:36:04;;;;;;;14.60;5.03;;;;;;;;;;7362784;19;20014;-83
2023/05/17 02:38:29;;;;;;;12.43;4.72;;;;;;;;;;7373427;19;20295;-83
2023/05/17 02:40:54;;;;;;;16.77;5.30;;;;;;;;;;7380556;19;20003;-83
2023/05/17 02:43:20;;;;;;;13.60;4.22;;;;;;;;;;7365106;19;19994;-83
2023/05/17 02:45:45;;;;;;;16.15;4.82;;;;;;;;;;7362789;19;19999;-83
2023/05/17 02:48:10;;;;;;;15.80;4.97;;;;;;;;;;7366540;19;19994;-83
2023/05/17 02:50:36;;;;;;;16.27;5.90;;;;;;;;;;7363833;19;20002;-83
2023/05/17 02:53:01;;;;;;;17.05;5.22;;;;;;;;;;7363765;19;21132;-83
2023/05/17 02:55:26;;;;;;;16.20;5.17;;;;;;;;;;7369601;19;20013;-83
2023/05/17 02:57:52;;;;;;;16.70;5.88;;;;;;;;;;7360879;19;20745;-83
2023/05/17 03:00:17;;;;;;;12.65;5.72;;;;;;;;;;7365762;19;20800;-83
2023/05/17 03:02:42;;;;;;;16.42;6.60;;;;;;;;;;7363471;19;19999;-83
2023/05/17 03:05:07;;;;;;;22.58;7.60;;;;;;;;;;7350193;19;20652;-83
2023/05/17 03:07:32;;;;;;;18.40;6.88;;;;;;;;;;7362832;19;20011;-83
2023/05/17 03:09:58;;;;;;;19.13;6.68;;;;;;;;;;7357343;19;20005;-83
2023/05/17 03:12:23;;;;;;;18.42;7.78;;;;;;;;;;7364077;19;20235;-83
2023/05/17 03:14:48;;;;;;;15.50;6.97;;;;;;;;;;7366758;19;20035;-83
2023/05/17 03:17:13;;;;;;;14.57;7.10;;;;;;;;;;7371428;19;20002;-83
2023/05/17 03:19:38;;;;;;;18.67;8.20;;;;;;;;;;7358457;19;20240;-83
2023/05/17 03:22:03;;;;;;;17.02;7.40;;;;;;;;;;7372679;19;20010;-83
2023/05/17 03:24:29;;;;;;;19.93;7.37;;;;;;;;;;7359349;19;20105;-83
2023/05/17 03:26:54;;;;;;;18.15;8.15;;;;;;;;;;7366462;19;21157;-83
2023/05/17 03:29:19;;;;;;;18.37;7.67;;;;;;;;;;7371090;19;20724;-83
2023/05/17 03:31:44;;;;;;;17.50;7.60;;;;;;;;;;7368975;19;20236;-82
2023/05/17 03:34:10;;;;;;;18.17;7.35;;;;;;;;;;7362241;19;20111;-85
2023/05/17 03:36:35;;;;;;;22.67;8.05;;;;;;;;;;7366559;19;20019;-85
2023/05/17 03:39:00;;;;;;;16.73;7.43;;;;;;;;;;7350175;19;20002;-85
2023/05/17 03:41:25;;;;;;;18.53;8.30;;;;;;;;;;7348860;19;19997;-86
2023/05/17 03:43:50;;;;;;;15.38;7.70;;;;;;;;;;7363853;19;21463;-86
2023/05/17 03:46:15;;;;;;;19.03;6.90;;;;;;;;;;7360482;19;19998;-86
2023/05/17 03:48:41;;;;;;;15.00;7.50;;;;;;;;;;7363922;19;20223;-86
2023/05/17 03:51:06;;;;;;;18.90;7.60;;;;;;;;;;7370584;19;20052;-85
2023/05/17 03:53:31;;;;;;;14.32;6.75;;;;;;;;;;7370212;19;20649;-85
2023/05/17 03:55:56;;;;;;;21.60;7.27;;;;;;;;;;7353643;19;20107;-85
2023/05/17 03:58:21;;;;;;;16.97;7.27;;;;;;;;;;7364259;19;20328;-85
2023/05/17 04:00:46;;;;;;;20.63;7.32;;;;;;;;;;7360872;19;20680;-85
2023/05/17 04:03:12;;;;;;;22.20;7.33;;;;;;;;;;7351343;19;19999;-85
2023/05/17 04:05:38;;;;;;;20.47;7.63;;;;;;;;;;7344990;19;20873;-85
2023/05/17 04:08:04;;;;;;;16.55;6.78;;;;;;;;;;7337875;19;20252;-86
2023/05/17 04:10:29;;;;;;;16.25;6.72;;;;;;;;;;7327344;19;19998;-85
2023/05/17 04:12:54;;;;;;;16.38;6.57;;;;;;;;;;7337044;19;20073;-85
2023/05/17 04:15:19;;;;;;;19.23;6.97;;;;;;;;;;7354667;19;19998;-85
2023/05/17 04:17:45;;;;;;;17.53;6.87;;;;;;;;;;7346219;19;20275;-86
2023/05/17 04:20:10;;;;;;;17.98;7.57;;;;;;;;;;7330351;19;20247;-85
2023/05/17 04:22:35;;;;;;;14.60;6.35;;;;;;;;;;7335478;19;20003;-85
2023/05/17 04:25:00;;;;;;;18.33;7.03;;;;;;;;;;7355579;19;20002;-85
2023/05/17 04:27:26;;;;;;;22.60;7.15;;;;;;;;;;7362033;19;20239;-85
2023/05/17 04:29:51;;;;;;;21.42;7.05;;;;;;;;;;7368376;19;20247;-86
2023/05/17 04:32:17;;;;;;;17.38;6.70;;;;;;;;;;7370260;19;20003;-83
2023/05/17 04:34:43;;;;;;;19.05;6.93;;;;;;;;;;7362324;19;20028;-81
2023/05/17 04:37:08;;;;;;;14.63;5.95;;;;;;;;;;7360109;19;20002;-81
2023/05/17 04:39:33;;;;;;;24.20;7.80;;;;;;;;;;7364655;19;20276;-80
2023/05/17 04:41:58;;;;;;;17.98;7.78;;;;;;;;;;7366348;19;20240;-81
2023/05/17 04:44:24;;;;;;;17.88;6.38;;;;;;;;;;7371559;19;20026;-81
2023/05/17 04:46:49;;;;;;;13.43;6.13;;;;;;;;;;7368556;19;20573;-81
2023/05/17 04:49:14;;;;;;;17.08;6.10;;;;;;;;;;7358649;19;20010;-81
2023/05/17 04:51:39;;;;;;;17.55;6.97;;;;;;;;;;7361354;19;20131;-82
2023/05/17 04:54:07;;;;;;;16.90;5.95;;;;;;;;;;7367859;19;20003;-81
2023/05/17 04:56:33;;;;;;;22.00;6.78;;;;;;;;;;7370558;19;20005;-81
2023/05/17 04:58:58;;;;;;;19.50;6.63;;;;;;;;;;7360513;19;19998;-81
2023/05/17 05:01:23;;;;;;;17.27;6.57;;;;;;;;;;7367150;19;20650;-81
2023/05/17 05:03:49;;;;;;;18.10;7.50;;;;;;;;;;7362393;19;20400;-81
2023/05/17 05:06:15;;;;;;;16.63;6.95;;;;;;;;;;7369210;19;20754;-81
2023/05/17 05:08:40;;;;;;;17.25;6.20;;;;;;;;;;7364670;19;19999;-81
2023/05/17 05:11:05;;;;;;;13.55;6.20;;;;;;;;;;7367345;19;20010;-81
2023/05/17 05:13:31;;;;;;;19.85;6.47;;;;;;;;;;7369541;19;19999;-81
2023/05/17 05:15:56;;;;;;;19.20;6.47;;;;;;;;;;7385268;19;20030;-81
2023/05/17 05:18:21;;;;;;;15.10;5.72;;;;;;;;;;7360958;19;19994;-81
2023/05/17 05:20:47;;;;;;;18.55;6.65;;;;;;;;;;7364239;19;19995;-81
2023/05/17 05:23:12;;;;;;;14.35;6.90;;;;;;;;;;7365373;19;19990;-81
2023/05/17 05:25:37;;;;;;;14.83;6.20;;;;;;;;;;7363776;19;20002;-80
2023/05/17 05:28:03;;;;;;;19.40;6.50;;;;;;;;;;7360155;19;20686;-81
2023/05/17 05:30:28;;;;;;;17.45;6.00;;;;;;;;;;7366991;19;20357;-81
2023/05/17 05:32:53;;;;;;;19.42;6.05;;;;;;;;;;7365143;19;20010;-81
2023/05/17 05:35:18;;;;;;;20.10;6.85;;;;;;;;;;7364104;19;20353;-81
2023/05/17 05:37:44;;;;;;;16.00;6.10;;;;;;;;;;7353454;19;20615;-81
2023/05/17 05:40:09;;;;;;;21.25;7.15;;;;;;;;;;7365758;19;20002;-81
2023/05/17 05:42:34;;;;;;;18.77;6.43;;;;;;;;;;7367016;19;20519;-81
2023/05/17 05:45:00;;;;;;;14.17;6.20;;;;;;;;;;7366279;19;21142;-81
2023/05/17 05:47:25;;;;;;;19.33;7.23;;;;;;;;;;7355541;19;20237;-81
2023/05/17 05:49:50;;;;;;;16.95;6.85;;;;;;;;;;7358587;19;20590;-81
2023/05/17 05:52:15;;;;;;;24.13;7.73;;;;;;;;;;7359844;19;20061;-81
2023/05/17 05:54:41;;;;;;;14.70;7.10;;;;;;;;;;7349230;19;20263;-81
2023/05/17 05:57:06;;;;;;;19.67;6.93;;;;;;;;;;7354402;19;20492;-81
2023/05/17 05:59:31;;;;;;;20.20;8.27;;;;;;;;;;7366695;19;20001;-79
2023/05/17 06:01:57;;;;;;;17.60;6.70;;;;;;;;;;7358649;19;20248;-81
2023/05/17 06:04:23;;;;;;;24.85;7.68;;;;;;;;;;7342610;19;20243;-81
2023/05/17 06:06:48;;;;;;;19.92;7.18;;;;;;;;;;7356761;19;20006;-80
2023/05/17 06:09:14;;;;;;;16.73;8.02;;;;;;;;;;7346874;19;20002;-81
2023/05/17 06:11:39;;;;;;;18.55;7.03;;;;;;;;;;7363403;19;19995;-82
2023/05/17 06:14:04;;;;;;;14.35;6.60;;;;;;;;;;7365520;19;20010;-80
2023/05/17 06:16:29;;;;;;;20.73;8.50;;;;;;;;;;7350228;19;20483;-81
2023/05/17 06:18:55;;;;;;;17.23;7.72;;;;;;;;;;7357962;19;20499;-81
2023/05/17 06:21:20;;;;;;;20.15;7.78;;;;;;;;;;7358616;19;19999;-81
2023/05/17 06:23:45;;;;;;;20.13;7.57;;;;;;;;;;7363023;19;20002;-81
2023/05/17 06:26:10;;;;;;;16.63;7.13;;;;;;;;;;7356357;19;20002;-81
2023/05/17 06:28:36;;;;;;;17.37;6.97;;;;;;;;;;7349427;19;19995;-81
2023/05/17 06:31:01;;;;;;;19.58;7.00;;;;;;;;;;7353885;19;20248;-81
2023/05/17 06:33:26;;;;;;;18.07;7.23;;;;;;;;;;7343205;19;20506;-80
2023/05/17 06:35:52;;;;;;;18.53;7.93;;;;;;;;;;7357694;19;20312;-82
2023/05/17 06:38:17;;;;;;;17.15;7.50;;;;;;;;;;7352265;19;20270;-82
2023/05/17 06:40:42;;;;;;;17.15;7.82;;;;;;;;;;7357934;19;20864;-82
2023/05/17 06:43:07;;;;;;;16.40;7.72;;;;;;;;;;7348650;19;20851;-82
2023/05/17 06:45:32;;;;;;;19.85;7.65;;;;;;;;;;7359619;19;20023;-82
2023/05/17 06:47:58;;;;;;;19.30;7.18;;;;;;;;;;7362269;19;19999;-82
2023/05/17 06:50:25;;;;;;;15.77;7.17;;;;;;;;;;7363405;19;20006;-81
2023/05/17 06:52:50;;;;;;;15.95;6.97;;;;;;;;;;7363653;19;20545;-83
2023/05/17 06:55:16;;;;;;;17.53;7.47;;;;;;;;;;7358232;19;19990;-82
2023/05/17 06:57:41;;;;;;;18.13;7.78;;;;;;;;;;7369335;19;20247;-82
2023/05/17 07:00:09;;;;;;;18.07;7.70;;;;;;;;;;7370186;19;20128;-82
2023/05/17 07:02:34;;;;;;;19.77;7.13;;;;;;;;;;7373650;19;20275;-82
2023/05/17 07:05:00;;;;;;;18.35;7.63;;;;;;;;;;7361343;19;20546;-82
2023/05/17 07:07:25;;;;;;;18.63;7.32;;;;;;;;;;7369238;19;19995;-82
2023/05/17 07:09:51;;;;;;;16.63;7.23;;;;;;;;;;7356424;19;19998;-82
2023/05/17 07:12:16;;;;;;;13.77;7.22;;;;;;;;;;7375720;19;20256;-83
2023/05/17 07:14:42;;;;;;;19.02;7.45;;;;;;;;;;7369213;19;19998;-82
2023/05/17 07:17:09;;;;;;;18.58;7.38;;;;;;;;;;7372825;19;19998;-82
2023/05/17 07:19:34;;;;;;;16.13;6.78;;;;;;;;;;7367479;19;19998;-82
2023/05/17 07:22:00;;;;;;;18.63;8.50;;;;;;;;;;7369865;19;19999;-82
2023/05/17 07:24:25;;;;;;;19.43;7.90;;;;;;;;;;7371177;19;20714;-81
2023/05/17 07:26:50;;;;;;;15.83;7.57;;;;;;;;;;7368972;19;19995;-81
2023/05/17 07:29:16;;;;;;;18.67;8.00;;;;;;;;;;7373677;19;20432;-82
2023/05/17 07:31:41;;;;;;;16.83;7.07;;;;;;;;;;7374082;19;20008;-81
2023/05/17 07:34:06;;;;;;;18.20;6.90;;;;;;;;;;7367264;19;20798;-82
2023/05/17 07:36:31;;;;;;;13.82;6.45;;;;;;;;;;7370869;19;20488;-81
2023/05/17 07:38:57;;;;;;;21.02;7.63;;;;;;;;;;7368492;19;20030;-82
2023/05/17 07:41:22;;;;;;;14.80;6.35;;;;;;;;;;7375258;19;20032;-81
2023/05/17 07:43:48;;;;;;;15.30;7.45;;;;;;;;;;7375321;19;20011;-82
2023/05/17 07:46:13;;;;;;;15.65;6.82;;;;;;;;;;7374197;19;20690;-82
2023/05/17 07:48:38;;;;;;;12.35;6.70;;;;;;;;;;7391456;19;20335;-82
2023/05/17 07:51:03;;;;;;;18.52;6.15;;;;;;;;;;7364290;19;20047;-81
2023/05/17 07:53:28;;;;;;;16.97;6.10;;;;;;;;;;7370268;19;19995;-82
2023/05/17 07:55:53;;;;;;;17.50;5.77;;;;;;;;;;7372359;19;20387;-82
2023/05/17 07:58:19;;;;;;;14.57;6.20;;;;;;;;;;7364734;19;19998;-82
2023/05/17 08:00:44;;;;;;;16.75;5.85;;;;;;;;;;7367203;19;20668;-81
2023/05/17 08:03:09;;;;;;;17.65;5.75;;;;;;;;;;7360572;19;20355;-83
2023/05/17 08:05:34;;;;;;;13.57;5.78;;;;;;;;;;7333228;19;19991;-82
2023/05/17 08:08:00;;;;;;;15.32;5.65;;;;;;;;;;7369012;19;20006;-82
2023/05/17 08:10:26;;;;;;;16.85;6.45;;;;;;;;;;7364297;19;20001;-82
2023/05/17 08:12:52;;;;;;;20.75;6.45;;;;;;;;;;7364141;19;20074;-82
2023/05/17 08:15:17;;;;;;;12.50;5.43;;;;;;;;;;7373611;19;20403;-82
2023/05/17 08:17:42;;;;;;;17.60;6.10;;;;;;;;;;7374001;19;19991;-82
2023/05/17 08:20:07;;;;;;;12.18;4.93;;;;;;;;;;7359815;19;20231;-82
2023/05/17 08:22:33;;;;;;;12.82;5.57;;;;;;;;;;7370783;19;20021;-79
2023/05/17 08:24:58;;;;;;;12.05;5.00;;;;;;;;;;7372313;19;20003;-83
2023/05/17 08:27:24;;;;;;;14.53;5.23;;;;;;;;;;7375345;19;19999;-83
2023/05/17 08:29:50;;;;;;;13.00;5.10;;;;;;;;;;7368727;19;20247;-82
2023/05/17 08:32:15;;;;;;;17.73;5.32;;;;;;;;;;7365063;19;20070;-83
2023/05/17 08:34:41;;;;;;;11.98;5.10;;;;;;;;;;7362919;19;20017;-83
2023/05/17 08:37:06;;;;;;;14.63;5.60;;;;;;;;;;7367280;19;19999;-82
2023/05/17 08:39:32;;;;;;;15.40;4.95;;;;;;;;;;7369883;19;20230;-83
2023/05/17 08:41:58;;;;;;;14.13;4.65;;;;;;;;;;7371787;19;20003;-83
2023/05/17 08:44:23;;;;;;;10.13;4.32;;;;;;;;;;7368842;19;19998;-83
2023/05/17 08:46:52;;;;;;;11.37;4.70;;;;;;;;;;7371868;19;20099;-83
2023/05/17 08:49:20;;;;;;;11.50;4.25;;;;;;;;;;7364777;19;20267;-82
2023/05/17 08:51:48;;;;;;;11.15;4.43;;;;;;;;;;7369869;19;20027;-82
2023/05/17 08:54:14;;;;;;;13.38;5.05;;;;;;;;;;7368865;19;19998;-82
2023/05/17 08:56:40;;;;;;;12.73;5.15;;;;;;;;;;7372013;19;20039;-83
2023/05/17 08:59:05;;;;;;;12.85;5.70;;;;;;;;;;7346459;19;20006;-83
2023/05/17 09:01:30;;;;;;;16.70;5.90;;;;;;;;;;7367412;19;20013;-83
2023/05/17 09:03:56;;;;;;;11.68;5.10;;;;;;;;;;7366240;19;20314;-82
2023/05/17 09:06:21;;;;;;;15.60;4.95;;;;;;;;;;7370177;19;20492;-83
2023/05/17 09:08:49;;;;;;;11.25;4.57;;;;;;;;;;7370655;19;20073;-81
2023/05/17 09:11:22;;;;;;;15.05;4.78;;;;;;;;;;7369482;19;20007;-82
2023/05/17 09:13:48;;;;;;;11.95;4.80;;;;;;;;;;7367004;19;19998;-83
2023/05/17 09:16:13;;;;;;;10.60;4.30;;;;;;;;;;7365516;19;20034;-83
2023/05/17 09:18:39;;;;;;;16.15;4.47;;;;;;;;;;7367861;19;20340;-83
2023/05/17 09:21:04;;;;;;;15.65;4.65;;;;;;;;;;7367994;19;20356;-82
2023/05/17 09:23:32;;;;;;;13.10;4.47;;;;;;;;;;7335192;19;20135;-82
2023/05/17 09:26:06;;;;;;;14.85;4.57;;;;;;;;;;7349673;19;20062;-83
2023/05/17 09:28:31;;;;;;;;;;;;;;;;;;7372364;19;20006;-82
2023/05/17 09:31:04;;;;;;;11.73;4.28;;;;;;;;;;7368595;19;19910;-82
2023/05/17 09:33:29;;;;;;;18.25;5.00;;;;;;;;;;7353155;19;20006;-82
2023/05/17 09:35:54;;;;;;;12.98;4.50;;;;;;;;;;7366643;19;19991;-82
2023/05/17 09:38:24;;;;;;;18.05;5.60;;;;;;;;;;7361702;19;20070;-83
2023/05/17 09:40:49;;;;;;;13.40;5.38;;;;;;;;;;7370911;19;20002;-82
2023/05/17 09:43:15;;;;;;;15.43;5.23;;;;;;;;;;7364977;19;20985;-83
2023/05/17 09:45:41;;;;;;;14.40;4.53;;;;;;;;;;7368546;19;20296;-83
2023/05/17 09:48:12;;;;;;;13.65;4.88;;;;;;;;;;7366961;19;20371;-83
2023/05/17 09:50:42;;;;;;;13.30;4.00;;;;;;;;;;7363845;19;20006;-84
2023/05/17 09:53:20;;;;;;;14.80;3.60;;;;;;;;;;7362287;19;20117;-83
2023/05/17 09:55:46;;;;;;;15.02;4.25;;;;;;;;;;7371672;19;20073;-80
2023/05/17 09:58:12;;;;;;;11.52;3.75;;;;;;;;;;7360312;19;20012;-83
2023/05/17 10:00:38;;;;;;;13.35;3.75;;;;;;;;;;7371282;19;20065;-83
2023/05/17 10:03:04;;;;;;;14.52;4.95;;;;;;;;;;7361960;19;20006;-82
2023/05/17 10:05:29;;;;;;;11.98;4.20;;;;;;;;;;7367666;19;20032;-83
2023/05/17 10:07:55;;;;;;;14.30;3.53;;;;;;;;;;7363995;19;19995;-84
2023/05/17 10:10:20;;;;;;;11.95;3.58;;;;;;;;;;7357470;19;20113;-83
2023/05/17 10:12:46;;;;;;;12.23;3.80;;;;;;;;;;7362447;19;20286;-84
2023/05/17 10:15:11;;;;;;;9.85;3.38;;;;;;;;;;7366129;19;20010;-83
2023/05/17 10:17:40;;;;;;;11.98;3.20;;;;;;;;;;7359902;19;20907;-82
2023/05/17 10:20:07;;;;;;;11.32;3.10;;;;;;;;;;7356565;19;20656;-80
2023/05/17 10:22:32;;;;;;;11.38;3.03;;;;;;;;;;7365847;19;20492;-83
2023/05/17 10:24:58;;;;;;;10.43;3.10;;;;;;;;;;7382997;19;20047;-82
2023/05/17 10:27:24;;;;;;;8.35;3.13;;;;;;;;;;7382135;19;20471;-83
2023/05/17 10:29:50;;;;;;;12.30;3.30;;;;;;;;;;7385393;19;20598;-82
2023/05/17 10:32:17;;;;;;;13.93;3.42;;;;;;;;;;7373461;19;20007;-82
2023/05/17 10:34:43;;;;;;;10.30;3.42;;;;;;;;;;7375726;19;20006;-81
2023/05/17 10:37:10;;;;;;;12.45;3.25;;;;;;;;;;7368162;19;20467;-83
2023/05/17 10:39:37;;;;;;;9.48;3.38;;;;;;;;;;7376792;19;20007;-83
2023/05/17 10:42:04;;;;;;;10.40;3.35;;;;;;;;;;7377607;19;20002;-81
2023/05/17 10:44:31;;;;;;;11.68;3.50;;;;;;;;;;7374726;19;19995;-82
2023/05/17 10:46:57;;;;;;;15.02;3.67;;;;;;;;;;7362490;19;20024;-82
2023/05/17 10:49:25;;;;;;;11.52;3.90;;;;;;;;;;7370733;19;19994;-83
2023/05/17 10:51:51;;;;;;;11.45;3.72;;;;;;;;;;7380442;19;20123;-83
2023/05/17 10:54:19;;;;;;;10.80;3.53;;;;;;;;;;7380891;19;20011;-81
2023/05/17 10:56:47;;;;;;;11.40;3.20;;;;;;;;;;7374318;19;20009;-82
2023/05/17 10:59:25;;;;;;;15.55;4.38;;;;;;;;;;7364416;19;20573;-78
2023/05/17 11:01:52;;;;;;;12.15;3.10;;;;;;;;;;7370337;19;20092;-83
2023/05/17 11:04:32;;;;;;;13.88;4.18;;;;;;;;;;7365887;19;20002;-82
2023/05/17 11:07:16;;;;;;;11.65;4.00;;;;;;;;;;7365471;19;20009;-79
2023/05/17 11:09:42;;;;;;;11.77;3.22;;;;;;;;;;7372779;19;20007;-80
2023/05/17 11:12:08;;;;;;;10.98;3.35;;;;;;;;;;7334030;19;20311;-83
2023/05/17 11:14:43;;;;;;;13.57;3.45;;;;;;;;;;7374088;19;19994;-83
2023/05/17 11:17:16;;;;;;;12.55;3.33;;;;;;;;;;7376425;19;19999;-83
2023/05/17 11:19:54;;;;;;;13.80;3.72;;;;;;;;;;7375093;19;20002;-81
2023/05/17 11:22:26;;;;;;;13.30;3.60;;;;;;;;;;7375195;19;20026;-80
2023/05/17 11:24:53;;;;;;;10.82;3.10;;;;;;;;;;7374517;19;20003;-83
2023/05/17 11:27:18;;;;;;;10.90;3.22;;;;;;;;;;7370127;19;19999;-83
2023/05/17 11:29:46;;;;;;;9.07;2.97;;;;;;;;;;7382432;19;20007;-83
2023/05/17 11:32:11;;;;;;;13.40;3.63;;;;;;;;;;7373710;19;20420;-83
2023/05/17 11:34:37;;;;;;;14.20;3.63;;;;;;;;;;7363753;19;20043;-80
2023/05/17 11:37:03;;;;;;;9.02;3.13;;;;;;;;;;7352000;19;20241;-80
2023/05/17 11:39:28;;;;;;;14.10;3.75;;;;;;;;;;7374028;19;20007;-83
2023/05/17 11:41:54;;;;;;;9.70;3.45;;;;;;;;;;7372880;19;20374;-82
2023/05/17 11:44:24;;;;;;;10.80;3.17;;;;;;;;;;7368913;19;20583;-82
2023/05/17 11:46:50;;;;;;;13.52;3.95;;;;;;;;;;7374603;19;20039;-83
2023/05/17 11:49:15;;;;;;;17.30;3.92;;;;;;;;;;7360444;19;20062;-84
2023/05/17 11:51:41;;;;;;;12.23;3.45;;;;;;;;;;7374663;19;19999;-82
2023/05/17 11:54:07;;;;;;;12.15;3.45;;;;;;;;;;7373246;19;20002;-82
2023/05/17 11:56:33;;;;;;;12.55;3.40;;;;;;;;;;7372456;19;20218;-82
2023/05/17 11:58:58;;;;;;;10.32;3.00;;;;;;;;;;7373080;19;20472;-80
2023/05/17 12:01:24;;;;;;;14.73;3.28;;;;;;;;;;7376286;19;20070;-80
2023/05/17 12:03:54;;;;;;;13.05;3.60;;;;;;;;;;7372306;19;20007;-83
2023/05/17 12:06:19;;;;;;;11.60;3.40;;;;;;;;;;7362311;19;20107;-82
2023/05/17 12:08:45;;;;;;;9.68;2.92;;;;;;;;;;7371501;19;20121;-83
2023/05/17 12:11:11;;;;;;;14.80;3.15;;;;;;;;;;7374626;19;20005;-83
2023/05/17 12:13:37;;;;;;;14.88;2.90;;;;;;;;;;7374971;19;20009;-82
2023/05/17 12:16:05;;;;;;;14.07;3.30;;;;;;;;;;7368560;19;20013;-82
2023/05/17 12:18:41;;;;;;;18.55;3.70;;;;;;;;;;7372038;19;20013;-82
2023/05/17 12:21:07;;;;;;;9.70;2.97;;;;;;;;;;7374583;19;20157;-83
2023/05/17 12:23:40;;;;;;;12.80;3.00;;;;;;;;;;7367702;19;20007;-82
2023/05/17 12:26:06;;;;;;;13.88;3.65;;;;;;;;;;7371111;19;19999;-82
2023/05/17 12:28:31;;;;;;;16.33;3.20;;;;;;;;;;7370233;19;20029;-82
2023/05/17 12:30:57;;;;;;;10.50;2.80;;;;;;;;;;7376142;19;19998;-81
2023/05/17 12:33:23;;;;;;;13.88;3.00;;;;;;;;;;7371023;19;20003;-83
2023/05/17 12:35:48;;;;;;;11.55;2.60;;;;;;;;;;7372585;19;20765;-84
2023/05/17 12:38:14;;;;;;;14.75;3.17;;;;;;;;;;7368633;19;20070;-82
2023/05/17 12:40:39;;;;;;;10.02;2.38;;;;;;;;;;7374207;19;20901;-82
2023/05/17 12:43:04;;;;;;;11.57;2.97;;;;;;;;;;7370513;19;20005;-81
2023/05/17 12:45:30;;;;;;;11.97;2.97;;;;;;;;;;7366123;19;20002;-82
2023/05/17 12:47:55;;;;;;;10.75;2.83;;;;;;;;;;7372061;19;20254;-82
2023/05/17 12:50:24;;;;;;;10.70;2.80;;;;;;;;;;7366175;19;20660;-82
2023/05/17 12:52:50;;;;;;;11.50;2.83;;;;;;;;;;7376644;19;19994;-84
2023/05/17 12:55:15;;;;;;;10.50;2.75;;;;;;;;;;7379821;19;20056;-82
2023/05/17 12:57:47;;;;;;;11.98;2.70;;;;;;;;;;7365185;19;19998;-80
2023/05/17 13:00:13;;;;;;;9.63;3.05;;;;;;;;;;7362822;19;20043;-80
2023/05/17 13:02:40;;;;;;;10.50;2.83;;;;;;;;;;7372294;19;20006;-81
2023/05/17 13:05:14;;;;;;;12.23;2.58;;;;;;;;;;7359696;19;20519;-82
2023/05/17 13:07:39;;;;;;;12.10;3.00;;;;;;;;;;7364559;19;19999;-82
2023/05/17 13:10:05;;;;;;;13.98;3.22;;;;;;;;;;7371843;19;19998;-83
2023/05/17 13:12:30;;;;;;;14.75;3.35;;;;;;;;;;7365342;19;20828;-82
2023/05/17 13:14:55;;;;;;;10.27;2.83;;;;;;;;;;7369420;19;20014;-82
2023/05/17 13:17:25;;;;;;;12.83;3.40;;;;;;;;;;7372203;19;20006;-83
2023/05/17 13:19:50;;;;;;;14.38;3.20;;;;;;;;;;7371673;19;20022;-79
2023/05/17 13:22:15;;;;;;;12.55;3.10;;;;;;;;;;7369400;19;20078;-83
2023/05/17 13:24:41;;;;;;;11.50;3.05;;;;;;;;;;7366643;19;20686;-83
2023/05/17 13:27:07;;;;;;;11.27;2.90;;;;;;;;;;7366492;19;19991;-82
2023/05/17 13:29:33;;;;;;;18.20;3.30;;;;;;;;;;7367215;19;20032;-85
2023/05/17 13:31:58;;;;;;;15.15;3.10;;;;;;;;;;7375141;19;20580;-83
2023/05/17 13:34:23;;;;;;;13.27;3.03;;;;;;;;;;7371850;19;20006;-84
2023/05/17 13:36:48;;;;;;;13.93;3.25;;;;;;;;;;7372438;19;20244;-83
2023/05/17 13:39:15;;;;;;;12.55;3.15;;;;;;;;;;7325422;19;20367;-83
2023/05/17 13:41:40;;;;;;;12.43;3.30;;;;;;;;;;7342489;19;20001;-82
2023/05/17 13:44:05;;;;;;;9.52;2.35;;;;;;;;;;7346835;19;19999;-82
2023/05/17 13:46:31;;;;;;;13.13;2.92;;;;;;;;;;7371520;19;20006;-81
2023/05/17 13:48:56;;;;;;;12.88;2.97;;;;;;;;;;7365682;19;20006;-82
2023/05/17 13:51:21;;;;;;;12.85;2.88;;;;;;;;;;7372795;19;20005;-79
2023/05/17 13:53:46;;;;;;;12.32;2.92;;;;;;;;;;7362785;19;20638;-83
2023/05/17 13:56:12;;;;;;;12.52;3.30;;;;;;;;;;7366138;19;19991;-82
2023/05/17 13:58:37;;;;;;;13.67;3.17;;;;;;;;;;7372815;19;20010;-82
2023/05/17 14:01:02;;;;;;;12.60;3.30;;;;;;;;;;7363011;19;20248;-79
2023/05/17 14:03:27;;;;;;;11.50;2.97;;;;;;;;;;7316454;19;20657;-84
2023/05/17 14:05:53;;;;;;;11.70;3.03;;;;;;;;;;7360655;19;20025;-81
2023/05/17 14:08:19;;;;;;;13.63;3.60;;;;;;;;;;7368216;19;20614;-80
2023/05/17 14:10:44;;;;;;;17.05;3.30;;;;;;;;;;7356324;19;20542;-83
2023/05/17 14:13:10;;;;;;;9.00;2.55;;;;;;;;;;7357140;19;19990;-83
2023/05/17 14:15:37;;;;;;;10.85;3.20;;;;;;;;;;7362705;19;19994;-82
2023/05/17 14:18:03;;;;;;;9.35;2.88;;;;;;;;;;7382156;19;20046;-82
2023/05/17 14:20:29;;;;;;;13.65;3.25;;;;;;;;;;7380436;19;20023;-82
2023/05/17 14:22:54;;;;;;;14.90;3.20;;;;;;;;;;7389246;19;20013;-82
2023/05/17 14:25:19;;;;;;;14.57;3.25;;;;;;;;;;7381732;19;19995;-82